createdAt,value
2018-04-12T00:00:30.059Z,18.73
2018-04-12T00:02:56.691Z,16.73
2018-04-12T00:05:23.341Z,17.65
2018-04-12T00:07:49.971Z,17.00
2018-04-12T00:10:16.602Z,17.00
2018-04-12T00:12:43.263Z,15.85
2018-04-12T00:15:10.127Z,16.48
2018-04-12T00:17:36.751Z,15.25
2018-04-12T00:20:03.487Z,16.00
2018-04-12T00:22:30.224Z,14.45
2018-04-12T00:24:56.962Z,16.12
2018-04-12T00:27:23.632Z,15.30
2018-04-12T00:29:50.344Z,13.13
2018-04-12T00:32:16.989Z,13.05
2018-04-12T00:34:43.727Z,13.48
2018-04-12T00:37:10.347Z,12.65
2018-04-12T00:39:37.007Z,12.90
2018-04-12T00:42:03.660Z,14.57
2018-04-12T00:44:30.301Z,13.02
2018-04-12T00:46:56.927Z,13.18
2018-04-12T00:49:23.582Z,12.30
2018-04-12T00:51:50.215Z,12.23
2018-04-12T00:54:16.843Z,11.98
2018-04-12T00:56:43.540Z,11.30
2018-04-12T00:59:10.144Z,11.95
2018-04-12T01:01:36.856Z,10.05
2018-04-12T01:04:03.606Z,11.93
2018-04-12T01:06:30.334Z,12.18
2018-04-12T01:08:56.995Z,11.05
2018-04-12T01:11:23.722Z,10.82
2018-04-12T01:13:50.358Z,10.70
2018-04-12T01:16:16.991Z,10.85
2018-04-12T01:18:43.631Z,9.85
2018-04-12T01:21:10.254Z,8.88
2018-04-12T01:23:36.892Z,10.52
2018-04-12T01:26:03.540Z,10.93
2018-04-12T01:28:30.168Z,9.60
2018-04-12T01:30:56.837Z,10.15
2018-04-12T01:33:23.484Z,10.10
2018-04-12T01:35:50.116Z,8.63
2018-04-12T01:38:16.851Z,9.55
2018-04-12T01:40:43.489Z,8.57
2018-04-12T01:43:10.116Z,9.32
2018-04-12T01:45:36.781Z,9.27
2018-04-12T01:48:03.420Z,9.63
2018-04-12T01:50:30.048Z,9.07
2018-04-12T01:52:56.682Z,8.55
2018-04-12T01:55:23.327Z,8.25
2018-04-12T01:57:50.068Z,9.40
2018-04-12T02:00:16.689Z,9.75
2018-04-12T02:02:43.339Z,9.93
2018-04-12T02:05:09.967Z,10.23
2018-04-12T02:07:36.632Z,9.18
2018-04-12T02:10:03.288Z,8.85
2018-04-12T02:12:29.903Z,8.05
2018-04-12T02:14:57.385Z,8.93
2018-04-12T02:17:24.072Z,7.95
2018-04-12T02:19:50.747Z,8.70
2018-04-12T02:22:17.372Z,8.60
2018-04-12T02:24:44.018Z,7.55
2018-04-12T02:27:10.648Z,7.75
2018-04-12T02:29:37.279Z,7.78
2018-04-12T02:32:03.920Z,7.45
2018-04-12T02:34:30.586Z,7.65
2018-04-12T02:36:57.309Z,7.72
2018-04-12T02:39:23.951Z,9.30
2018-04-12T02:41:50.584Z,8.60
2018-04-12T02:44:17.236Z,8.20
2018-04-12T02:46:43.885Z,7.87
2018-04-12T02:49:10.506Z,7.30
2018-04-12T02:51:37.155Z,7.53
2018-04-12T02:54:03.795Z,8.18
2018-04-12T02:56:30.412Z,8.40
2018-04-12T02:58:57.055Z,8.13
2018-04-12T03:01:23.694Z,7.93
2018-04-12T03:03:50.319Z,7.20
2018-04-12T03:06:16.939Z,8.25
2018-04-12T03:08:43.580Z,6.53
2018-04-12T03:11:10.263Z,7.50
2018-04-12T03:13:36.891Z,6.82
2018-04-12T03:16:03.535Z,7.78
2018-04-12T03:18:30.175Z,6.60
2018-04-12T03:20:56.828Z,6.28
2018-04-12T03:23:23.508Z,6.62
2018-04-12T03:25:50.093Z,7.30
2018-04-12T03:28:16.710Z,6.45
2018-04-12T03:30:43.364Z,6.70
2018-04-12T03:33:10.020Z,6.60
2018-04-12T03:35:36.635Z,7.22
2018-04-12T03:38:03.290Z,7.40
2018-04-12T03:40:29.927Z,6.55
2018-04-12T03:42:56.543Z,6.60
2018-04-12T03:45:23.237Z,6.50
2018-04-12T03:47:49.855Z,6.10
2018-04-12T03:50:16.591Z,6.32
2018-04-12T03:52:43.241Z,7.10
2018-04-12T03:55:10.497Z,6.57
2018-04-12T03:57:37.118Z,6.03
2018-04-12T04:00:03.757Z,6.22
2018-04-12T04:02:30.375Z,5.55
2018-04-12T04:04:57.007Z,6.28
2018-04-12T04:07:23.705Z,6.15
2018-04-12T04:09:50.320Z,5.60
2018-04-12T04:12:16.940Z,5.80
2018-04-12T04:14:49.546Z,6.40
2018-04-12T04:17:22.000Z,6.68
2018-04-12T04:19:54.510Z,6.43
2018-04-12T04:22:21.135Z,7.80
2018-04-12T04:24:47.868Z,6.47
2018-04-12T04:27:14.504Z,5.55
2018-04-12T04:29:41.271Z,5.90
2018-04-12T04:32:08.802Z,6.62
2018-04-12T04:34:35.443Z,5.70
2018-04-12T04:37:02.075Z,6.20
2018-04-12T04:39:28.710Z,6.90
2018-04-12T04:41:55.367Z,6.70
2018-04-12T04:44:21.998Z,5.40
2018-04-12T04:46:48.734Z,6.43
2018-04-12T04:49:15.372Z,7.07
2018-04-12T04:51:41.993Z,5.70
2018-04-12T04:54:08.627Z,5.80
2018-04-12T04:56:35.267Z,7.12
2018-04-12T04:59:01.901Z,5.65
2018-04-12T05:01:28.547Z,5.60
2018-04-12T05:03:55.180Z,6.03
2018-04-12T05:06:21.807Z,5.78
2018-04-12T05:08:48.451Z,5.03
2018-04-12T05:11:15.086Z,6.28
2018-04-12T05:13:41.779Z,5.53
2018-04-12T05:16:08.514Z,5.85
2018-04-12T05:18:35.151Z,5.05
2018-04-12T05:21:01.834Z,5.75
2018-04-12T05:23:28.430Z,4.90
2018-04-12T05:25:55.085Z,5.43
2018-04-12T05:28:21.711Z,5.07
2018-04-12T05:30:48.442Z,5.75
2018-04-12T05:33:15.096Z,5.80
2018-04-12T05:35:41.715Z,4.93
2018-04-12T05:38:08.364Z,5.15
2018-04-12T05:40:35.031Z,5.32
2018-04-12T05:43:01.759Z,5.45
2018-04-12T05:45:28.396Z,5.43
2018-04-12T05:47:55.036Z,5.20
2018-04-12T05:50:21.793Z,4.80
2018-04-12T05:52:48.458Z,4.50
2018-04-12T05:55:15.064Z,4.93
2018-04-12T05:57:41.786Z,4.82
2018-04-12T06:00:08.406Z,4.90
2018-04-12T06:02:35.067Z,5.00
2018-04-12T06:05:01.696Z,4.90
2018-04-12T06:07:28.314Z,4.82
2018-04-12T06:09:54.990Z,5.75
2018-04-12T06:12:21.624Z,4.30
2018-04-12T06:14:49.074Z,4.70
2018-04-12T06:17:15.824Z,4.70
2018-04-12T06:19:42.446Z,4.45
2018-04-12T06:22:09.098Z,4.30
2018-04-12T06:24:35.726Z,4.65
2018-04-12T06:27:02.380Z,4.47
2018-04-12T06:29:28.994Z,4.43
2018-04-12T06:31:55.633Z,4.28
2018-04-12T06:34:22.260Z,4.25
2018-04-12T06:36:48.879Z,4.45
2018-04-12T06:39:15.580Z,3.80
2018-04-12T06:41:42.213Z,4.18
2018-04-12T06:44:08.839Z,5.40
2018-04-12T06:46:35.480Z,4.22
2018-04-12T06:49:02.108Z,4.00
2018-04-12T06:51:28.736Z,3.75
2018-04-12T06:53:55.406Z,4.05
2018-04-12T06:56:22.042Z,3.78
2018-04-12T06:58:48.667Z,4.10
2018-04-12T07:01:15.345Z,4.43
2018-04-12T07:03:42.071Z,4.72
2018-04-12T07:06:08.694Z,4.35
2018-04-12T07:08:35.351Z,3.50
2018-04-12T07:11:02.087Z,3.40
2018-04-12T07:13:28.831Z,4.45
2018-04-12T07:15:55.487Z,3.55
2018-04-12T07:18:22.178Z,4.50
2018-04-12T07:20:48.813Z,3.40
2018-04-12T07:23:15.449Z,3.42
2018-04-12T07:25:42.123Z,3.62
2018-04-12T07:28:08.751Z,3.70
2018-04-12T07:30:35.396Z,3.70
2018-04-12T07:33:02.036Z,3.12
2018-04-12T07:35:28.787Z,3.72
2018-04-12T07:37:55.442Z,3.25
2018-04-12T07:40:22.075Z,3.90
2018-04-12T07:42:48.699Z,3.53
2018-04-12T07:45:15.334Z,3.75
2018-04-12T07:47:41.955Z,3.97
2018-04-12T07:50:08.638Z,3.10
2018-04-12T07:52:35.360Z,3.05
2018-04-12T07:55:02.087Z,3.45
2018-04-12T07:57:28.708Z,3.67
2018-04-12T07:59:55.343Z,2.92
2018-04-12T08:02:21.967Z,2.50
2018-04-12T08:04:48.646Z,2.70
2018-04-12T08:07:15.282Z,2.65
2018-04-12T08:09:41.920Z,2.92
2018-04-12T08:12:08.556Z,3.17
2018-04-12T08:14:35.198Z,2.62
2018-04-12T08:17:01.830Z,3.15
2018-04-12T08:19:28.459Z,3.42
2018-04-12T08:21:55.110Z,3.05
2018-04-12T08:24:21.744Z,3.03
2018-04-12T08:26:48.377Z,3.70
2018-04-12T08:29:15.015Z,2.67
2018-04-12T08:31:41.684Z,3.20
2018-04-12T08:34:08.344Z,3.37
2018-04-12T08:36:35.072Z,2.85
2018-04-12T08:39:01.799Z,2.90
2018-04-12T08:41:28.419Z,2.67
2018-04-12T08:43:55.114Z,2.45
2018-04-12T08:46:21.716Z,2.47
2018-04-12T08:48:48.362Z,2.80
2018-04-12T08:51:14.997Z,2.15
2018-04-12T08:53:41.623Z,2.45
2018-04-12T08:56:08.303Z,2.40
2018-04-12T08:58:35.016Z,2.53
2018-04-12T09:01:01.660Z,2.47
2018-04-12T09:03:28.291Z,2.40
2018-04-12T09:05:55.043Z,2.97
2018-04-12T09:08:21.705Z,2.00
2018-04-12T09:10:48.323Z,2.20
2018-04-12T09:13:15.063Z,2.60
2018-04-12T09:15:41.691Z,2.70
2018-04-12T09:18:08.314Z,2.53
2018-04-12T09:20:34.980Z,2.42
2018-04-12T09:23:01.608Z,2.53
2018-04-12T09:25:28.230Z,2.65
2018-04-12T09:27:54.879Z,2.42
2018-04-12T09:30:21.500Z,2.45
2018-04-12T09:32:48.170Z,2.55
2018-04-12T09:35:14.813Z,3.10
2018-04-12T09:37:41.551Z,2.85
2018-04-12T09:40:08.176Z,2.62
2018-04-12T09:42:34.810Z,2.85
2018-04-12T09:45:01.477Z,1.90
2018-04-12T09:47:28.211Z,2.83
2018-04-12T09:49:54.956Z,2.55
2018-04-12T09:52:21.697Z,1.70
2018-04-12T09:54:48.322Z,1.80
2018-04-12T09:57:14.991Z,2.17
2018-04-12T09:59:41.619Z,2.22
2018-04-12T10:02:08.272Z,2.83
2018-04-12T10:04:40.651Z,2.20
2018-04-12T10:07:07.282Z,2.95
2018-04-12T10:09:33.934Z,2.65
2018-04-12T10:12:00.636Z,2.17
2018-04-12T10:14:27.261Z,2.67
2018-04-12T10:16:53.921Z,2.22
2018-04-12T10:19:20.612Z,2.37
2018-04-12T10:21:47.233Z,2.40
2018-04-12T10:24:13.967Z,2.65
2018-04-12T10:26:40.710Z,2.60
2018-04-12T10:29:07.414Z,2.40
2018-04-12T10:31:34.056Z,2.60
2018-04-12T10:34:00.695Z,2.78
2018-04-12T10:36:27.343Z,3.12
2018-04-12T10:38:54.004Z,2.50
2018-04-12T10:41:20.653Z,2.78
2018-04-12T10:43:47.271Z,2.50
2018-04-12T10:46:13.886Z,1.73
2018-04-12T10:48:40.531Z,2.83
2018-04-12T10:51:07.156Z,2.10
2018-04-12T10:53:33.784Z,2.62
2018-04-12T10:56:00.432Z,2.55
2018-04-12T10:58:27.058Z,2.00
2018-04-12T11:00:53.740Z,2.10
2018-04-12T11:03:20.384Z,1.60
2018-04-12T11:05:47.134Z,2.08
2018-04-12T11:08:13.759Z,2.25
2018-04-12T11:10:40.405Z,1.60
2018-04-12T11:13:07.122Z,2.30
2018-04-12T11:15:33.792Z,1.87
2018-04-12T11:18:00.430Z,2.60
2018-04-12T11:20:27.639Z,3.50
2018-04-12T11:22:54.309Z,2.72
2018-04-12T11:25:20.964Z,1.95
2018-04-12T11:27:47.629Z,2.65
2018-04-12T11:30:14.329Z,2.10
2018-04-12T11:32:40.969Z,2.22
2018-04-12T11:35:07.658Z,2.12
2018-04-12T11:37:34.335Z,2.35
2018-04-12T11:40:00.994Z,2.20
2018-04-12T11:42:27.638Z,1.77
2018-04-12T11:44:54.346Z,2.00
2018-04-12T11:47:20.983Z,2.10
2018-04-12T11:49:47.683Z,2.35
2018-04-12T11:52:14.297Z,2.13
2018-04-12T11:54:40.927Z,1.83
2018-04-12T11:57:07.552Z,2.43
2018-04-12T11:59:34.179Z,2.20
2018-04-12T12:02:00.824Z,1.65
2018-04-12T12:04:27.448Z,1.30
2018-04-12T12:06:54.085Z,1.40
2018-04-12T12:09:20.735Z,2.00
2018-04-12T12:11:47.395Z,1.75
2018-04-12T12:14:14.119Z,1.80
2018-04-12T12:16:40.765Z,1.50
2018-04-12T12:19:07.408Z,1.10
2018-04-12T12:21:34.047Z,1.60
2018-04-12T12:24:00.679Z,1.50
2018-04-12T12:26:27.312Z,1.60
2018-04-12T12:28:54.079Z,1.70
2018-04-12T12:31:20.808Z,1.10
2018-04-12T12:33:47.452Z,1.30
2018-04-12T12:36:14.187Z,1.50
2018-04-12T12:38:40.870Z,1.90
2018-04-12T12:41:07.491Z,2.50
2018-04-12T12:43:34.117Z,1.83
2018-04-12T12:46:00.758Z,1.75
2018-04-12T12:48:27.513Z,3.57
2018-04-12T12:50:57.073Z,2.60
2018-04-12T12:53:26.882Z,2.27
2018-04-12T12:55:55.088Z,4.23
2018-04-12T12:58:23.795Z,2.30
2018-04-12T13:00:52.962Z,3.10
2018-04-12T13:03:22.298Z,13.30
2018-04-12T13:05:52.315Z,8.57
2018-04-12T13:08:19.052Z,2.20
2018-04-12T13:10:45.688Z,12.57
2018-04-12T13:13:12.336Z,4.60
2018-04-12T13:15:38.965Z,4.10
2018-04-12T13:18:05.582Z,2.83
2018-04-12T13:20:32.225Z,3.73
2018-04-12T13:22:58.862Z,5.93
2018-04-12T13:25:25.500Z,2.10
2018-04-12T13:27:52.980Z,2.07
2018-04-12T13:30:19.601Z,7.93
2018-04-12T13:32:46.219Z,2.30
2018-04-12T13:35:12.854Z,2.20
2018-04-12T13:37:39.476Z,1.43
2018-04-12T13:40:06.095Z,2.30
2018-04-12T13:42:32.744Z,3.27
2018-04-12T13:44:59.363Z,1.70
2018-04-12T13:47:25.988Z,1.93
2018-04-12T13:49:52.703Z,4.10
2018-04-12T13:52:19.327Z,3.23
2018-04-12T13:54:45.990Z,3.70
2018-04-12T13:57:12.642Z,22.40
2018-04-12T13:59:39.278Z,0.67
2018-04-12T14:02:05.906Z,4.47
2018-04-12T14:04:32.534Z,5.87
2018-04-12T14:06:59.156Z,2.10
2018-04-12T14:09:25.817Z,3.45
2018-04-12T14:11:52.566Z,5.93
2018-04-12T14:14:19.303Z,13.87
2018-04-12T14:16:45.918Z,3.40
2018-04-12T14:19:12.563Z,1.90
2018-04-12T14:21:39.192Z,1.17
2018-04-12T14:24:05.864Z,1.00
2018-04-12T14:26:32.516Z,1.17
2018-04-12T14:28:59.229Z,1.33
2018-04-12T14:31:25.870Z,1.25
2018-04-12T14:33:52.525Z,1.27
2018-04-12T14:36:19.326Z,1.55
2018-04-12T14:38:45.922Z,1.70
2018-04-12T14:41:12.663Z,1.33
2018-04-12T14:43:39.374Z,0.90
2018-04-12T14:46:06.011Z,1.27
2018-04-12T14:48:32.665Z,0.73
2018-04-12T14:50:59.296Z,1.20
2018-04-12T14:53:25.925Z,6.70
2018-04-12T14:55:52.578Z,1.50
2018-04-12T14:58:19.280Z,1.33
2018-04-12T15:00:45.907Z,0.98
2018-04-12T15:03:12.546Z,1.20
2018-04-12T15:05:39.179Z,1.10
2018-04-12T15:08:05.828Z,0.65
2018-04-12T15:10:32.451Z,1.00
2018-04-12T15:12:59.175Z,3.30
2018-04-12T15:15:25.822Z,1.33
2018-04-12T15:17:52.449Z,2.25
2018-04-12T15:20:19.162Z,1.00
2018-04-12T15:22:45.912Z,1.50
2018-04-12T15:25:12.548Z,1.00
2018-04-12T15:27:39.906Z,1.02
2018-04-12T15:30:06.559Z,1.33
2018-04-12T15:32:33.192Z,1.02
2018-04-12T15:34:59.828Z,0.85
2018-04-12T15:37:26.462Z,1.60
2018-04-12T15:39:53.103Z,6.03
2018-04-12T15:42:19.844Z,1.10
2018-04-12T15:44:46.488Z,2.30
2018-04-12T15:47:13.222Z,1.60
2018-04-12T15:49:39.965Z,1.40
2018-04-12T15:52:06.612Z,2.03
2018-04-12T15:54:33.241Z,1.70
2018-04-12T15:56:59.977Z,2.47
2018-04-12T15:59:26.618Z,1.42
2018-04-12T16:01:53.251Z,4.72
2018-04-12T16:04:19.888Z,1.98
2018-04-12T16:06:46.579Z,1.40
2018-04-12T16:09:13.172Z,1.37
2018-04-12T16:11:39.843Z,1.00
2018-04-12T16:14:06.600Z,2.78
2018-04-12T16:16:33.247Z,1.27
2018-04-12T16:18:59.874Z,1.25
2018-04-12T16:21:26.504Z,1.42
2018-04-12T16:23:53.149Z,2.50
2018-04-12T16:26:19.786Z,2.80
2018-04-12T16:28:46.432Z,1.75
2018-04-12T16:31:13.130Z,1.70
2018-04-12T16:33:39.779Z,1.00
2018-04-12T16:36:06.412Z,2.15
2018-04-12T16:38:33.053Z,1.65
2018-04-12T16:40:59.690Z,1.52
2018-04-12T16:43:26.424Z,2.35
2018-04-12T16:45:53.061Z,1.15
2018-04-12T16:48:19.695Z,1.90
2018-04-12T16:50:46.320Z,2.15
2018-04-12T16:53:12.978Z,2.28
2018-04-12T16:55:39.612Z,2.55
2018-04-12T16:58:06.230Z,2.62
2018-04-12T17:00:32.927Z,2.97
2018-04-12T17:02:59.648Z,1.75
2018-04-12T17:05:26.312Z,2.58
2018-04-12T17:07:52.997Z,2.15
2018-04-12T17:10:19.677Z,1.90
2018-04-12T17:12:46.439Z,1.98
2018-04-12T17:15:13.076Z,1.80
2018-04-12T17:17:39.715Z,2.35
2018-04-12T17:20:06.335Z,1.95
2018-04-12T17:22:32.967Z,2.58
2018-04-12T17:24:59.613Z,1.30
2018-04-12T17:27:26.751Z,1.60
2018-04-12T17:29:53.375Z,2.20
2018-04-12T17:32:20.018Z,1.50
2018-04-12T17:34:46.643Z,2.00
2018-04-12T17:37:13.272Z,1.80
2018-04-12T17:39:39.950Z,1.98
2018-04-12T17:42:06.576Z,2.10
2018-04-12T17:44:33.219Z,2.03
2018-04-12T17:46:59.859Z,3.00
2018-04-12T17:49:26.498Z,2.80
2018-04-12T17:51:53.141Z,3.17
2018-04-12T17:54:19.811Z,2.03
2018-04-12T17:56:46.411Z,1.70
2018-04-12T17:59:13.040Z,1.50
2018-04-12T18:01:39.681Z,1.73
2018-04-12T18:04:06.328Z,2.05
2018-04-12T18:06:32.980Z,1.40
2018-04-12T18:08:59.603Z,1.67
2018-04-12T18:11:26.292Z,1.23
2018-04-12T18:13:53.020Z,1.25
2018-04-12T18:16:19.762Z,1.52
2018-04-12T18:18:46.397Z,1.23
2018-04-12T18:21:13.015Z,1.80
2018-04-12T18:23:39.648Z,1.25
2018-04-12T18:26:06.288Z,1.10
2018-04-12T18:28:32.927Z,1.10
2018-04-12T18:30:59.544Z,1.35
2018-04-12T18:33:26.209Z,1.70
2018-04-12T18:35:52.826Z,1.20
2018-04-12T18:38:19.480Z,1.20
2018-04-12T18:40:46.109Z,1.10
2018-04-12T18:43:12.731Z,1.73
2018-04-12T18:45:39.370Z,1.10
2018-04-12T18:48:06.000Z,1.10
2018-04-12T18:50:32.642Z,1.30
2018-04-12T18:52:59.266Z,1.30
2018-04-12T18:55:25.960Z,0.70
2018-04-12T18:57:52.695Z,1.30
2018-04-12T19:00:19.340Z,1.10
2018-04-12T19:02:45.981Z,1.25
2018-04-12T19:05:12.612Z,1.45
2018-04-12T19:07:39.359Z,2.78
2018-04-12T19:10:05.988Z,1.98
2018-04-12T19:12:32.639Z,2.00
2018-04-12T19:14:59.284Z,1.75
2018-04-12T19:17:26.014Z,1.85
2018-04-12T19:19:52.654Z,1.95
2018-04-12T19:22:19.286Z,1.95
2018-04-12T19:24:45.933Z,2.10
2018-04-12T19:27:12.671Z,2.05
2018-04-12T19:29:39.290Z,1.80
2018-04-12T19:32:05.910Z,1.77
2018-04-12T19:34:32.552Z,2.92
2018-04-12T19:36:59.176Z,2.03
2018-04-12T19:39:25.806Z,2.85
2018-04-12T19:41:52.443Z,2.30
2018-04-12T19:44:19.058Z,2.17
2018-04-12T19:46:45.792Z,2.30
2018-04-12T19:49:12.438Z,2.58
2018-04-12T19:51:39.064Z,2.75
2018-04-12T19:54:05.702Z,2.60
2018-04-12T19:56:32.367Z,2.28
2018-04-12T19:58:58.986Z,2.03
2018-04-12T20:01:25.611Z,3.42
2018-04-12T20:03:52.251Z,3.50
2018-04-12T20:06:18.869Z,2.80
2018-04-12T20:08:45.489Z,3.00
2018-04-12T20:11:12.170Z,2.10
2018-04-12T20:13:38.793Z,2.90
2018-04-12T20:16:05.414Z,3.60
2018-04-12T20:18:32.044Z,2.50
2018-04-12T20:20:58.738Z,2.50
2018-04-12T20:23:25.472Z,2.40
2018-04-12T20:25:52.095Z,2.62
2018-04-12T20:28:18.736Z,2.30
2018-04-12T20:30:45.383Z,2.25
2018-04-12T20:33:12.008Z,2.55
2018-04-12T20:35:38.638Z,2.78
2018-04-12T20:38:05.260Z,2.20
2018-04-12T20:40:31.905Z,2.72
2018-04-12T20:42:58.535Z,2.60
2018-04-12T20:45:25.252Z,2.20
2018-04-12T20:47:51.890Z,2.87
2018-04-12T20:50:18.524Z,4.78
2018-04-12T20:52:45.153Z,5.93
2018-04-12T20:55:11.792Z,5.20
2018-04-12T20:57:38.520Z,4.32
2018-04-12T21:00:05.150Z,5.15
2018-04-12T21:02:31.772Z,4.30
2018-04-12T21:04:58.407Z,4.10
2018-04-12T21:07:25.027Z,4.00
2018-04-12T21:09:51.662Z,4.55
2018-04-12T21:12:18.287Z,4.60
2018-04-12T21:14:44.911Z,7.55
2018-04-12T21:17:11.626Z,5.50
2018-04-12T21:19:38.242Z,3.12
2018-04-12T21:22:04.864Z,3.10
2018-04-12T21:24:31.546Z,3.33
2018-04-12T21:26:58.195Z,2.30
2018-04-12T21:29:24.820Z,2.33
2018-04-12T21:31:51.521Z,2.72
2018-04-12T21:34:18.239Z,3.00
2018-04-12T21:36:44.950Z,3.20
2018-04-12T21:39:11.564Z,2.40
2018-04-12T21:41:38.206Z,3.37
2018-04-12T21:44:04.870Z,2.72
2018-04-12T21:46:31.512Z,2.45
2018-04-12T21:48:58.247Z,2.80
2018-04-12T21:51:24.866Z,3.15
2018-04-12T21:53:51.509Z,3.12
2018-04-12T21:56:18.166Z,3.10
2018-04-12T21:58:44.792Z,3.08
2018-04-12T22:01:11.436Z,2.35
2018-04-12T22:03:38.059Z,3.22
2018-04-12T22:06:04.683Z,3.00
2018-04-12T22:08:31.365Z,3.25
2018-04-12T22:10:58.000Z,2.92
2018-04-12T22:13:24.638Z,2.90
2018-04-12T22:15:51.272Z,3.17
2018-04-12T22:18:18.020Z,2.75
2018-04-12T22:20:44.639Z,3.10
2018-04-12T22:23:11.299Z,4.05
2018-04-12T22:25:38.039Z,3.22
2018-04-12T22:28:04.675Z,4.35
2018-04-12T22:30:31.315Z,3.45
2018-04-12T22:32:57.935Z,3.47
2018-04-12T22:35:24.579Z,3.20
2018-04-12T22:37:51.226Z,3.15
2018-04-12T22:40:17.851Z,3.28
2018-04-12T22:42:44.493Z,2.70
2018-04-12T22:45:11.151Z,3.35
2018-04-12T22:47:37.840Z,3.20
2018-04-12T22:50:04.531Z,3.75
2018-04-12T22:52:31.162Z,3.15
2018-04-12T22:54:57.782Z,3.10
2018-04-12T22:57:24.415Z,3.30
2018-04-12T22:59:51.079Z,3.37
2018-04-12T23:02:17.708Z,3.42
2018-04-12T23:04:44.368Z,3.50
2018-04-12T23:07:11.099Z,3.03
2018-04-12T23:09:37.743Z,3.00
2018-04-12T23:12:04.384Z,3.97
2018-04-12T23:14:31.150Z,4.07
2018-04-12T23:16:57.768Z,4.25
2018-04-12T23:19:24.412Z,4.03
2018-04-12T23:21:51.051Z,4.00
2018-04-12T23:24:17.674Z,4.20
2018-04-12T23:26:44.306Z,4.45
2018-04-12T23:29:10.926Z,4.28
2018-04-12T23:31:37.551Z,4.82
2018-04-12T23:34:04.236Z,11.30
2018-04-12T23:36:30.975Z,10.52
2018-04-12T23:38:57.595Z,9.35
2018-04-12T23:41:24.230Z,7.37
2018-04-12T23:43:50.887Z,7.15
2018-04-12T23:46:17.508Z,6.30
2018-04-12T23:48:44.170Z,6.00
2018-04-12T23:51:10.801Z,5.12
2018-04-12T23:53:37.442Z,3.92
2018-04-12T23:56:04.088Z,4.82
2018-04-12T23:58:30.711Z,4.22
